• Join FlightAware (Why Join?)
  • Login
  • US Flag 
04:55AM EDT


 

Airport Tracker/Info


-or-


 

Live Flight TrackerFlight Track Log ✈ UAL4202 ✈ 07-Apr-2013 ✈ KSTL - KEWR

Flight Track Log - Related Links

Times and Time Zones

All times are in EDT time to prevent confusion due to time zone crossing. See the UAL4202 flight status page for this flight to view local times or setup timezone preferences in your user account.

Time Position Orientation Groundspeed Altitude Reporting Facility
EDT Latitude Longitude Course Direction KTS MPH feet Rate Location/Type
08:20PM 38.7317 -90.2344 85° East 189 217 2,400  Level FAA TRACON SMA TRACON (SMA)
08:20PM 38.7328 -90.2114 86° East 206 237 2,900 1,620 Climbing FAA TRACON SMA TRACON (SMA)
08:20PM 38.7333 -90.1875 88° East 217 250 3,500 1,860 Climbing FAA TRACON SMA TRACON (SMA)
08:21PM 38.7356 -90.1558 85° East 230 265 4,200 1,800 Climbing FAA TRACON SMA TRACON (SMA)
08:21PM 38.7364 -90.1292 88° East 241 277 4,700 1,920 Climbing FAA TRACON SMA TRACON (SMA)
08:21PM 38.7389 -90.1014 83° East 252 290 5,500 2,340 Climbing FAA TRACON SMA TRACON (SMA)
08:22PM 38.7560 -89.9486 87° East  Level FlightAware Approximate
08:22PM 38.7417 -90.0664 84° East 258 297 6,300  Level FAA TRACON SMA TRACON (SMA)
08:22PM 38.7433 -90.0372 86° East 262 302 6,900 1,800 Climbing FAA TRACON SMA TRACON (SMA)
08:22PM 38.7461 -90.0078 83° East 270 311 7,500 1,920 Climbing FAA TRACON SMA TRACON (SMA)
08:23PM 38.7614 -89.8090 87° East  Level FlightAware Approximate
08:23PM 38.7489 -89.9697 85° East 278 320 8,200  Level FAA TRACON SMA TRACON (SMA)
08:23PM 38.7517 -89.9383 84° East 285 328 8,900 1,920 Climbing FAA TRACON SMA TRACON (SMA)
08:23PM 38.7539 -89.9069 85° East 289 333 9,500 2,100 Climbing FAA TRACON SMA TRACON (SMA)
08:24PM 38.7666 -89.6694 87° East  Level FlightAware Approximate
08:24PM 38.7561 -89.8678 86° East 289 333 10,300  Level FAA TRACON SMA TRACON (SMA)
08:24PM 38.7586 -89.8356 84° East 293 337 10,800 1,500 Climbing FAA TRACON SMA TRACON (SMA)
08:24PM 38.7617 -89.8028 83° East 300 345 11,300 1,500 Climbing FAA TRACON SMA TRACON (SMA)
08:25PM 38.7644 -89.7606 85° East 308 354 11,800 1,200 Climbing FAA TRACON SMA TRACON (SMA)
08:25PM 38.7672 -89.7253 84° East 319 367 12,100 720 Climbing FAA TRACON SMA TRACON (SMA)
08:25PM 38.7692 -89.6892 86° East 329 379 12,300 600 Climbing FAA TRACON SMA TRACON (SMA)
08:26PM 38.7728 -89.6417 84° East 344 396 12,500 720 Climbing FAA TRACON SMA TRACON (SMA)
08:26PM 38.7761 -89.6031 84° East 354 407 12,800 720 Climbing FAA TRACON SMA TRACON (SMA)
08:26PM 38.7797 -89.5633 83° East 363 418 13,000 720 Climbing FAA TRACON SMA TRACON (SMA)
08:27PM 38.7833 -89.5125 85° East 371 427 13,300 1,020 Climbing FAA TRACON SMA TRACON (SMA)
08:27PM 38.7872 -89.4717 83° East 374 430 13,700 1,020 Climbing FAA TRACON SMA TRACON (SMA)
08:27PM 38.7936 -89.4308 79° East 379 436 14,000 1,020 Climbing FAA TRACON SMA TRACON (SMA)
08:28PM 38.8000 -89.3792 81° East 381 438 14,400 1,020 Climbing FAA TRACON SMA TRACON (SMA)
08:28PM 38.8050 -89.3372 81° East 385 443 14,700 1,020 Climbing FAA TRACON SMA TRACON (SMA)
08:28PM 38.8111 -89.2953 79° East 388 447 15,100 1,200 Climbing FAA TRACON SMA TRACON (SMA)
08:29PM 38.8186 -89.2422 80° East 393 452 15,500 1,020 Climbing FAA TRACON SMA TRACON (SMA)
08:29PM 38.8258 -89.1994 78° East 396 456 15,800 900 Climbing FAA TRACON SMA TRACON (SMA)
08:29PM 38.8303 -89.1567 82° East 398 458 16,100 1,200 Climbing FAA TRACON SMA TRACON (SMA)
08:30PM 38.8372 -89.1025 81° East 399 459 16,600 1,020 Climbing FAA TRACON SMA TRACON (SMA)
08:30PM 38.8411 -89.0697 81° East 401 461 16,800 900 Climbing FAA TRACON SMA TRACON (SMA)
08:31PM 38.8578 -89.0125 69° East 404 465 17,700 1,080 Climbing Kansas City Center
08:32PM 38.8744 -88.8694 81° East 407 468 18,800 1,020 Climbing Kansas City Center
08:33PM 38.9150 -88.7286 70° East 415 478 19,900 1,080 Climbing Kansas City Center
08:34PM 38.9656 -88.5739 67° East 422 486 21,100 1,020 Climbing Kansas City Center
08:35PM 39.0103 -88.4325 68° East 425 489 22,100 1,020 Climbing Kansas City Center
08:36PM 39.0533 -88.2903 69° East 429 494 23,200 1,080 Climbing Indianapolis Center
08:37PM 39.0989 -88.1442 68° East 435 501 24,300 1,020 Climbing Indianapolis Center
08:38PM 39.1436 -87.9992 68° East 434 499 25,300 1,020 Climbing Indianapolis Center
08:39PM 39.1892 -87.8525 68° East 437 503 26,400 960 Climbing Indianapolis Center
08:40PM 39.2350 -87.7064 68° East 437 503 27,400 1,020 Climbing Indianapolis Center
08:41PM 39.2811 -87.5536 69° East 435 501 28,600 1,020 Climbing Indianapolis Center
08:42PM 39.3256 -87.4067 69° East 436 502 29,600 1,020 Climbing Indianapolis Center
08:43PM 39.3700 -87.2603 69° East 435 501 30,700 1,020 Climbing Indianapolis Center
08:44PM 39.4142 -87.1128 69° East 436 502 31,700 1,080 Climbing Indianapolis Center
08:45PM 39.4669 -86.9400 68° East 439 505 33,000 1,080 Climbing Indianapolis Center
08:46PM 39.5106 -86.7906 69° East 441 507 34,000 960 Climbing Indianapolis Center
08:47PM 39.5550 -86.6436 69° East 435 501 35,000 480 Climbing Indianapolis Center
08:48PM 39.5986 -86.4961 69° East 441 507 35,000  Level Indianapolis Center
08:49PM 39.6450 -86.3369 69° East 466 536 35,000  Level Indianapolis Center
08:50PM 39.6931 -86.1722 69° East 482 555 35,000  Level Indianapolis Center
08:51PM 39.7411 -86.0092 69° East 497 572 35,000  Level Indianapolis Center
08:52PM 39.7981 -85.8097 70° East 501 577 35,000  Level Indianapolis Center
08:53PM 39.8461 -85.6375 70° East 502 578 35,000  Level Indianapolis Center
08:54PM 39.8964 -85.4658 69° East 503 579 35,000  Level Indianapolis Center
08:55PM 39.9439 -85.2928 70° East 504 580 35,000  Level Indianapolis Center
08:56PM 39.9922 -85.1211 70° East 502 578 35,000  Level Indianapolis Center
08:57PM 40.0406 -84.9497 70° East 500 575 35,000  Level Indianapolis Center
08:58PM 40.0878 -84.7728 71° East 488 562 35,000  Level Indianapolis Center
08:59PM 40.1358 -84.6044 69° East 490 564 35,000  Level Indianapolis Center
09:00PM 40.1817 -84.4358 70° East 489 563 35,000  Level Indianapolis Center
09:01PM 40.2261 -84.2689 71° East 483 556 35,000  Level Indianapolis Center
09:02PM 40.2719 -84.1006 70° East 486 559 35,000  Level Indianapolis Center
09:03PM 40.3353 -83.9394 63° Northeast 492 566 35,000  Level Indianapolis Center
09:04PM 40.4072 -83.7847 59° Northeast 491 565 35,000 -60 Level Indianapolis Center
09:05PM 40.4792 -83.6272 59° Northeast 495 570 34,900  Descending Indianapolis Center
09:06PM 40.5500 -83.4692 59° Northeast 495 570 35,000  Climbing Indianapolis Center
09:08PM 40.6211 -83.3142 59° Northeast 490 564 35,000  Level Indianapolis Center
09:09PM 40.6922 -83.1536 60° Northeast 483 556 35,000  Level Indianapolis Center
09:10PM 40.7414 -82.9864 69° East 485 558 35,000  Level Indianapolis Center
09:11PM 40.7861 -82.8175 71° East 485 558 35,000  Level Indianapolis Center
09:12PM 40.8294 -82.6467 71° East 486 559 35,000  Level Indianapolis Center
09:13PM 40.8728 -82.4778 71° East 476 548 35,000  Level Cleveland Center
09:14PM 40.9172 -82.3058 71° East 482 555 35,000  Level Cleveland Center
09:15PM 40.9614 -82.1339 71° East 482 555 35,000  Level Cleveland Center
09:16PM 41.0031 -81.9669 72° East 487 560 35,000  Level Cleveland Center
09:17PM 41.0467 -81.7889 72° East 487 560 35,000  Level Cleveland Center
09:18PM 41.0903 -81.6161 71° East 487 560 35,000  Level Cleveland Center
09:19PM 41.1375 -81.4378 71° East 498 573 35,000  Level Cleveland Center
09:20PM 41.1761 -81.2644 73° East 498 573 35,000  Level Cleveland Center
09:21PM 41.2167 -81.0994 72° East 480 552 35,000  Level Cleveland Center
09:22PM 41.2592 -80.9256 72° East 480 552 35,000  Level Cleveland Center
09:23PM 41.3053 -80.7325 72° East 485 558 35,000  Level Cleveland Center
09:24PM 41.3264 -80.5472 81° East 491 565 35,000  Level Cleveland Center
09:25PM 41.3406 -80.3619 84° East 497 572 35,000  Level Cleveland Center
09:26PM 41.3547 -80.1792 84° East 497 572 35,000  Level Cleveland Center
09:27PM 41.3686 -79.9967 84° East 497 572 35,000  Level Cleveland Center
09:28PM 41.3822 -79.8358 84° East 497 572 35,000  Level Cleveland Center
09:29PM 41.3956 -79.6503 84° East 497 572 35,000  Level Cleveland Center
09:30PM 41.4106 -79.4728 84° East 497 572 35,000  Level Cleveland Center
09:31PM 41.4233 -79.2900 85° East 497 572 35,000  Level Cleveland Center
09:32PM 41.4378 -79.1069 84° East 497 572 35,000  Level Cleveland Center
09:33PM 41.4497 -78.9236 85° East 497 572 35,000  Level Cleveland Center
09:34PM 41.4636 -78.7406 84° East 497 572 35,000  Level Cleveland Center
09:35PM 41.4731 -78.5572 86° East 497 572 35,000  Level Cleveland Center
09:36PM 41.4864 -78.3711 84° East 497 572 35,000  Level Cleveland Center
09:36PM 41.4936 -78.2606 85° East 499 574 35,000 -240 Level New York Center
09:37PM 41.5044 -78.0844 85° East 512 589 34,700 -660 Descending New York Center
09:38PM 41.5011 -77.8983 91° East 512 589 33,800 -960 Descending New York Center
09:39PM 41.4767 -77.7128 100° East 517 595 32,800 -1,020 Descending New York Center
09:40PM 41.4517 -77.5331 100° East 507 583 31,800 -900 Descending New York Center
09:41PM 41.4194 -77.3278 102° East 507 583 31,000 -420 Descending New York Center
09:42PM 41.3936 -77.1511 101° East 497 572 31,000  Level New York Center
09:43PM 41.3658 -76.9714 102° East 497 572 31,000 -780 Level New York Center
09:44PM 41.3372 -76.7947 102° East 497 572 29,500 -1,980 Descending New York Center
09:45PM 41.2942 -76.6169 108° East 497 572 27,100 -2,460 Descending New York Center
09:46PM 41.2483 -76.4472 110° East 494 568 24,600 -2,520 Descending New York Center
09:47PM 41.2072 -76.3006 110° East 483 556 22,100 -2,580 Descending New York Center
09:48PM 41.1647 -76.1372 109° East 476 548 19,600 -1,560 Descending New York Center
09:49PM 41.1236 -75.9878 110° East 448 516 19,000 -1,320 Descending New York Center
09:50PM 41.0789 -75.8164 109° East 437 503 17,000 -2,520 Descending New York Center
09:51PM 41.0411 -75.6733 109° East 437 503 14,100 -2,040 Descending New York Center
09:52PM 41.0028 -75.5442 111° Southeast 424 488 13,000 -840 Descending New York Center
09:53PM 40.9625 -75.3983 110° East 404 465 12,500 -960 Descending New York Center
09:54PM 40.9256 -75.2778 112° Southeast 388 447 11,100 -1,260 Descending New York Center
09:55PM 40.8947 -75.1606 109° East 365 420 10,100 -1,500 Descending New York Center
09:56PM 40.8614 -75.0403 110° East 325 374 8,100 -1,560 Descending New York Center
09:57PM 40.8319 -74.9369 111° Southeast 306 352 7,000 -600 Descending New York Center
09:58PM 40.8331 -74.8411 89° East 289 333 7,000 -360 Level New York Center
09:59PM 40.8622 -74.7247 72° East 294 338 6,300 -660 Descending New York Center
10:00PM 40.8839 -74.6328 73° East 300 345 5,700 -900 Descending New York Center
10:01PM 40.8878 -74.5094 88° East 295 339 4,600 -900 Descending New York Center
10:02PM 40.8972 -74.4139 83° East 289 333 4,000 -420 Descending New York Center
10:03PM 40.9000 -74.3500 87° East 292 336 4,000 -360 Level New York TRACON
10:04PM 40.9167 -74.2333 79° East 297 342 3,500 -540 Descending New York TRACON
10:05PM 40.9000 -74.1333 102° East 286 329 3,000 -540 Descending New York TRACON
10:06PM 40.8500 -74.0833 143° Southeast 245 282 2,500 -540 Descending New York TRACON